Time;durP1;ratioP1;P1;durP2;ratioP2;P2;SDS_P1;SDS_P2;PMS_P1;PMS_P2;Temp;Humidity;BMP_temperature;BMP_pressure;BME280_temperature;BME280_humidity;BME280_pressure;Samples;Min_cycle;Max_cycle;Signal;HPM_P1;HPM_P2
2021/12/15 00:05:29;;;;;;;32.30;20.10;;;11.00;90.90;;;;;;5115817;28;20080;-83
2021/12/15 00:07:58;;;;;;;31.52;20.65;;;11.00;90.90;;;;;;5097153;28;20032;-84
2021/12/15 00:10:25;;;;;;;34.10;21.40;;;11.00;90.90;;;;;;5051392;28;20037;-84
2021/12/15 00:12:52;;;;;;;34.55;21.50;;;11.00;90.90;;;;;;5073132;28;20564;-83
2021/12/15 00:15:22;;;;;;;34.47;21.27;;;11.00;90.90;;;;;;5039185;28;20047;-84
2021/12/15 00:17:52;;;;;;;34.00;20.65;;;11.00;90.90;;;;;;5072678;28;20024;-83
2021/12/15 00:21:01;;;;;;;32.78;21.90;;;11.00;90.90;;;;;;5055901;28;20497;-84
2021/12/15 00:23:28;;;;;;;35.10;21.65;;;11.00;90.90;;;;;;5044792;28;20128;-84
2021/12/15 00:25:56;;;;;;;33.50;21.10;;;10.90;90.80;;;;;;5033912;28;20164;-84
2021/12/15 00:28:23;;;;;;;31.67;21.17;;;10.90;90.90;;;;;;5053215;28;20094;-84
2021/12/15 00:30:50;;;;;;;40.20;21.83;;;10.90;90.90;;;;;;5036095;28;20033;-83
2021/12/15 00:33:16;;;;;;;34.42;21.10;;;10.90;90.90;;;;;;5036301;28;20043;-83
2021/12/15 00:35:42;;;;;;;39.08;21.63;;;10.90;90.90;;;;;;5036181;28;20037;-83
2021/12/15 00:38:09;;;;;;;33.42;20.38;;;10.90;90.90;;;;;;5052957;28;20154;-83
2021/12/15 00:40:35;;;;;;;29.50;19.80;;;10.90;90.90;;;;;;5041325;28;20056;-83
2021/12/15 00:43:03;;;;;;;35.00;20.63;;;10.90;90.90;;;;;;5094662;28;20027;-82
2021/12/15 00:45:31;;;;;;;34.70;21.23;;;10.90;90.90;;;;;;5076102;28;20483;-82
2021/12/15 00:47:57;;;;;;;33.00;21.42;;;10.90;90.90;;;;;;5072968;28;20526;-82
2021/12/15 00:50:31;;;;;;;30.25;19.42;;;10.90;90.90;;;;;;5076432;28;20031;-82
2021/12/15 00:52:59;;;;;;;35.33;20.80;;;10.90;90.90;;;;;;5075999;28;20023;-83
2021/12/15 00:55:29;;;;;;;33.83;20.73;;;10.90;90.90;;;;;;5094480;28;20028;-83
2021/12/15 00:57:57;;;;;;;34.75;21.13;;;10.90;90.90;;;;;;5072988;28;20109;-83
2021/12/15 01:03:44;;;;;;;33.08;20.40;;;10.90;90.90;;;;;;5093793;28;20462;-83
2021/12/15 01:06:16;;;;;;;33.80;20.50;;;11.00;90.90;;;;;;5075325;28;20111;-82
2021/12/15 01:12:19;;;;;;;32.90;20.88;;;10.90;90.80;;;;;;5093747;28;20035;-82
2021/12/15 01:20:55;;;;;;;33.83;20.73;;;10.90;90.80;;;;;;5093798;28;20087;-82
2021/12/15 01:23:25;;;;;;;36.42;21.42;;;10.90;90.80;;;;;;5088345;28;20032;-81
2021/12/15 01:26:09;;;;;;;33.10;21.73;;;10.90;90.80;;;;;;5099083;28;20024;-81
2021/12/15 01:28:37;;;;;;;32.83;20.65;;;10.90;90.80;;;;;;5117328;28;20030;-81
2021/12/15 01:31:07;;;;;;;36.30;21.90;;;10.90;90.90;;;;;;5098708;28;20173;-81
2021/12/15 01:33:34;;;;;;;34.47;21.73;;;10.90;90.90;;;;;;5098826;28;20031;-80
2021/12/15 01:36:02;;;;;;;37.00;22.27;;;10.90;90.90;;;;;;5098540;28;20390;-80
2021/12/15 01:38:30;;;;;;;35.53;21.63;;;10.90;90.90;;;;;;5098693;28;20482;-81
2021/12/15 01:40:57;;;;;;;35.38;22.80;;;10.90;90.90;;;;;;5095962;28;20042;-81
2021/12/15 01:43:48;;;;;;;33.17;21.42;;;10.90;90.80;;;;;;5098761;28;20031;-83
2021/12/15 01:49:10;;;;;;;34.22;20.95;;;10.90;90.80;;;;;;5116624;28;20157;-81
2021/12/15 01:51:36;;;;;;;34.00;21.38;;;11.00;91.10;;;;;;5093194;28;20122;-81
2021/12/15 01:54:09;;;;;;;34.22;21.55;;;11.00;90.80;;;;;;5098487;28;20481;-82
2021/12/15 01:57:30;;;;;;;33.90;21.52;;;11.00;90.80;;;;;;5098613;28;20024;-82
2021/12/15 02:03:19;;;;;;;34.03;21.77;;;11.00;90.80;;;;;;5116987;28;20042;-82
2021/12/15 02:09:07;;;;;;;37.92;22.60;;;10.90;90.80;;;;;;5117252;28;20022;-83
2021/12/15 02:14:56;;;;;;;35.58;23.20;;;10.90;90.80;;;;;;5117348;28;20160;-82
2021/12/15 02:17:22;;;;;;;38.35;23.52;;;10.90;90.80;;;;;;5095678;28;20055;-82
2021/12/15 02:19:48;;;;;;;37.30;23.55;;;10.90;90.80;;;;;;5098474;28;20034;-82
2021/12/15 02:22:14;;;;;;;36.05;23.30;;;10.90;90.80;;;;;;5097565;28;20078;-82
2021/12/15 02:28:06;;;;;;;35.65;22.67;;;10.90;90.80;;;;;;5117085;28;20161;-83
2021/12/15 02:33:43;;;;;;;34.65;21.45;;;10.90;90.80;;;;;;5115442;28;20088;-82
2021/12/15 02:38:42;;;;;;;36.33;21.42;;;10.90;90.80;;;;;;5117545;28;20042;-83
2021/12/15 02:44:32;;;;;;;36.67;22.38;;;10.90;90.80;;;;;;5117885;28;20061;-84
2021/12/15 02:46:58;;;;;;;35.60;22.10;;;10.90;90.80;;;;;;5101999;28;20042;-84
2021/12/15 02:49:27;;;;;;;31.60;21.10;;;10.90;90.80;;;;;;5101952;28;20019;-83
2021/12/15 02:51:56;;;;;;;34.75;21.00;;;10.90;90.80;;;;;;5098821;28;20437;-82
2021/12/15 02:54:25;;;;;;;35.33;22.10;;;10.90;90.80;;;;;;5080610;28;20032;-82
2021/12/15 03:00:19;;;;;;;30.23;20.00;;;10.90;90.80;;;;;;5116219;28;20050;-81
2021/12/15 03:05:46;;;;;;;32.72;20.20;;;10.90;90.80;;;;;;5116258;28;20397;-83
2021/12/15 03:16:56;;;;;;;31.20;19.83;;;10.90;90.80;;;;;;5115320;28;20363;-82
2021/12/15 03:19:23;;;;;;;33.75;20.52;;;10.90;90.80;;;;;;5097508;28;20066;-82
2021/12/15 03:21:50;;;;;;;32.78;20.92;;;10.90;90.80;;;;;;5097412;28;20031;-82
2021/12/15 03:24:23;;;;;;;32.35;20.85;;;10.90;90.70;;;;;;5097458;28;20515;-83
2021/12/15 03:27:19;;;;;;;35.40;21.92;;;10.90;90.80;;;;;;5097918;28;20540;-82
2021/12/15 03:37:26;;;;;;;33.55;20.70;;;10.90;90.80;;;;;;5115681;28;20126;-83
2021/12/15 03:40:15;;;;;;;33.38;20.58;;;10.90;90.80;;;;;;5078408;28;20151;-83
2021/12/15 03:46:14;;;;;;;31.90;19.20;;;10.90;90.80;;;;;;5116431;28;20107;-83
2021/12/15 03:48:42;;;;;;;32.60;20.92;;;10.90;90.70;;;;;;5097495;28;20550;-83
2021/12/15 03:51:09;;;;;;;31.70;19.58;;;10.90;91.00;;;;;;5097488;28;20023;-82
2021/12/15 03:53:35;;;;;;;33.40;20.83;;;10.80;90.70;;;;;;5056097;28;20036;-83
2021/12/15 03:56:30;;;;;;;35.63;20.50;;;10.90;90.70;;;;;;5055807;28;20048;-83
2021/12/15 03:58:57;;;;;;;33.47;19.23;;;10.90;90.70;;;;;;5055876;28;20105;-83
2021/12/15 04:01:24;;;;;;;34.75;20.70;;;10.90;90.80;;;;;;5053706;28;20093;-83
2021/12/15 04:07:15;;;;;;;35.05;20.63;;;10.80;90.70;;;;;;5073773;28;20589;-83
2021/12/15 04:09:44;;;;;;;33.90;20.52;;;10.80;90.70;;;;;;5056596;28;20055;-83
2021/12/15 04:12:30;;;;;;;32.45;19.83;;;10.90;90.70;;;;;;5053631;28;20048;-83
2021/12/15 04:15:07;;;;;;;31.35;19.58;;;10.80;90.70;;;;;;5036490;28;20134;-83
2021/12/15 04:17:34;;;;;;;32.90;20.30;;;10.90;90.70;;;;;;5012188;28;20680;-83
2021/12/15 04:20:12;;;;;;;34.45;19.65;;;10.80;90.70;;;;;;4997123;28;20177;-83
2021/12/15 04:26:00;;;;;;;32.83;19.83;;;10.80;90.70;;;;;;5033148;28;20052;-84
2021/12/15 04:32:05;;;;;;;31.48;19.10;;;10.80;90.70;;;;;;5026439;28;20121;-84
2021/12/15 04:34:31;;;;;;;32.20;19.42;;;10.80;90.70;;;;;;5033375;28;20030;-83
2021/12/15 04:36:58;;;;;;;30.13;18.27;;;10.90;90.70;;;;;;5032794;28;20041;-84
2021/12/15 04:39:27;;;;;;;32.58;19.80;;;10.80;90.70;;;;;;5033127;28;20041;-84
2021/12/15 04:45:18;;;;;;;35.05;20.50;;;10.90;90.70;;;;;;5033102;28;20036;-83
2021/12/15 04:51:06;;;;;;;33.55;19.70;;;10.90;90.70;;;;;;5052929;28;20112;-83
2021/12/15 04:53:36;;;;;;;32.60;19.77;;;10.80;90.70;;;;;;5033297;28;20049;-83
2021/12/15 04:59:24;;;;;;;32.10;20.38;;;10.80;90.70;;;;;;5056619;28;20079;-82
2021/12/15 05:05:11;;;;;;;32.97;19.70;;;10.80;90.70;;;;;;5071627;28;20031;-83
2021/12/15 05:07:38;;;;;;;34.95;20.23;;;10.80;90.70;;;;;;5080511;28;20479;-83
2021/12/15 05:10:54;;;;;;;35.25;21.05;;;10.80;90.70;;;;;;5077991;28;20372;-83
2021/12/15 05:13:20;;;;;;;31.08;19.45;;;10.80;90.70;;;;;;5080235;28;20487;-83
2021/12/15 05:15:46;;;;;;;37.10;20.60;;;10.80;90.70;;;;;;5079358;28;20044;-83
2021/12/15 05:18:13;;;;;;;30.30;19.52;;;10.80;90.70;;;;;;5079025;28;20024;-82
2021/12/15 05:20:40;;;;;;;32.03;19.45;;;10.90;90.70;;;;;;5076383;28;20032;-83
2021/12/15 05:23:07;;;;;;;33.42;20.58;;;10.90;90.70;;;;;;5076421;28;20036;-84
2021/12/15 05:28:56;;;;;;;32.83;18.67;;;10.90;90.70;;;;;;5118575;28;20050;-84
2021/12/15 05:31:22;;;;;;;32.97;20.10;;;10.80;90.60;;;;;;5099694;28;20039;-83
2021/12/15 05:33:48;;;;;;;30.55;18.75;;;10.90;90.70;;;;;;5099486;28;20478;-83
2021/12/15 05:36:14;;;;;;;31.73;19.80;;;10.90;90.70;;;;;;5099305;28;20030;-83
2021/12/15 05:39:20;;;;;;;31.58;19.83;;;10.90;90.70;;;;;;5096396;28;20123;-82
2021/12/15 05:41:47;;;;;;;30.58;19.55;;;10.90;90.70;;;;;;5114200;28;20510;-82
2021/12/15 05:44:14;;;;;;;33.83;20.75;;;10.90;90.70;;;;;;5116979;28;20047;-83
2021/12/15 05:46:39;;;;;;;35.05;21.02;;;10.90;90.70;;;;;;5098883;28;20050;-82
2021/12/15 05:49:06;;;;;;;31.45;20.80;;;10.90;90.60;;;;;;5098765;28;20544;-82
2021/12/15 05:54:54;;;;;;;32.50;20.02;;;10.90;90.70;;;;;;5117398;28;20038;-82
2021/12/15 05:57:20;;;;;;;33.28;20.38;;;10.90;90.70;;;;;;5099249;28;20031;-82
2021/12/15 05:59:46;;;;;;;33.20;20.40;;;10.90;90.70;;;;;;5096201;28;20036;-82
2021/12/15 06:02:15;;;;;;;37.08;21.98;;;10.90;90.70;;;;;;5099401;28;20028;-83
2021/12/15 06:05:21;;;;;;;35.25;21.58;;;10.90;90.70;;;;;;5099563;28;20085;-83
2021/12/15 06:07:47;;;;;;;34.42;21.27;;;10.90;90.70;;;;;;5101237;28;20039;-83
2021/12/15 06:10:18;;;;;;;35.22;21.02;;;10.90;90.70;;;;;;5099410;28;20474;-82
2021/12/15 06:12:47;;;;;;;36.20;20.98;;;11.00;90.70;;;;;;5099245;28;20035;-82
2021/12/15 06:15:14;;;;;;;35.60;22.02;;;10.90;90.70;;;;;;5096561;28;20491;-83
2021/12/15 06:17:39;;;;;;;35.55;20.95;;;11.00;90.70;;;;;;5099365;28;20135;-82
2021/12/15 06:20:06;;;;;;;39.08;23.27;;;11.00;90.70;;;;;;5099294;28;20059;-83
2021/12/15 06:22:33;;;;;;;36.85;22.25;;;10.90;90.60;;;;;;5117829;28;20364;-83
2021/12/15 06:24:59;;;;;;;38.50;23.08;;;10.90;90.60;;;;;;5098985;28;20088;-83
2021/12/15 06:27:25;;;;;;;37.67;22.65;;;10.90;90.60;;;;;;5099436;28;20039;-82
2021/12/15 06:29:52;;;;;;;37.58;22.55;;;10.90;90.70;;;;;;5099428;28;20107;-82
2021/12/15 06:32:19;;;;;;;34.97;21.48;;;10.80;90.70;;;;;;5099506;28;20123;-82
2021/12/15 06:34:46;;;;;;;39.78;22.58;;;10.80;90.70;;;;;;5099079;28;20023;-82
2021/12/15 06:37:12;;;;;;;35.78;21.48;;;10.80;90.70;;;;;;5098330;28;20543;-81
2021/12/15 06:39:38;;;;;;;36.90;22.70;;;10.90;90.70;;;;;;5117500;28;20023;-82
2021/12/15 06:42:04;;;;;;;33.83;20.38;;;10.90;90.70;;;;;;5099254;28;20058;-82
2021/12/15 06:44:30;;;;;;;35.45;21.63;;;10.90;90.70;;;;;;5098954;28;20063;-82
2021/12/15 07:00:30;;;;;;;36.17;21.48;;;10.90;90.70;;;;;;5117456;28;20031;-82
2021/12/15 07:03:00;;;;;;;35.95;21.35;;;10.90;90.70;;;;;;5099036;28;20020;-82
2021/12/15 07:05:28;;;;;;;36.53;20.92;;;11.00;90.70;;;;;;5117369;28;20085;-82
2021/12/15 07:07:56;;;;;;;36.20;21.80;;;11.00;90.70;;;;;;5117249;28;20126;-81
2021/12/15 07:10:27;;;;;;;35.78;21.63;;;11.00;90.70;;;;;;5098247;28;20436;-81
2021/12/15 07:12:52;;;;;;;38.47;21.67;;;11.00;90.70;;;;;;5116098;28;20034;-80
2021/12/15 07:15:19;;;;;;;38.25;22.08;;;11.00;90.70;;;;;;5099084;28;20024;-82
2021/12/15 07:17:48;;;;;;;36.35;21.88;;;11.00;90.70;;;;;;5099422;28;20030;-81
2021/12/15 07:20:37;;;;;;;37.25;21.23;;;11.00;90.70;;;;;;5100176;28;20084;-83
2021/12/15 07:23:08;;;;;;;37.15;22.20;;;11.00;90.70;;;;;;5100954;28;20054;-82
2021/12/15 07:25:37;;;;;;;34.88;20.80;;;11.00;90.90;;;;;;5100149;28;20031;-82
2021/12/15 07:28:05;;;;;;;37.97;21.30;;;11.00;90.70;;;;;;5099592;28;20054;-82
2021/12/15 07:30:31;;;;;;;36.40;20.73;;;11.00;90.70;;;;;;5099056;28;20028;-81
2021/12/15 07:32:58;;;;;;;37.13;21.88;;;11.00;90.70;;;;;;5098671;28;20057;-83
2021/12/15 07:35:27;;;;;;;38.65;21.17;;;11.00;90.70;;;;;;5099498;28;20031;-83
2021/12/15 07:37:53;;;;;;;37.58;20.83;;;11.00;90.70;;;;;;5101295;28;20550;-83
2021/12/15 07:43:41;;;;;;;37.28;19.88;;;11.00;90.70;;;;;;5118953;28;20027;-83
2021/12/15 07:46:08;;;;;;;41.15;22.90;;;11.00;90.70;;;;;;5100777;28;20087;-82
2021/12/15 07:48:35;;;;;;;42.88;22.48;;;11.00;90.70;;;;;;5100252;28;20026;-82
2021/12/15 07:51:04;;;;;;;39.15;21.15;;;11.00;90.70;;;;;;5101298;28;20027;-82
2021/12/15 07:53:30;;;;;;;37.42;20.58;;;11.00;90.70;;;;;;5101486;28;20498;-82
2021/12/15 07:55:56;;;;;;;41.10;21.77;;;11.10;90.70;;;;;;5101047;28;20034;-82
2021/12/15 07:58:24;;;;;;;39.10;21.33;;;11.00;90.70;;;;;;5100814;28;20031;-81
2021/12/15 08:00:51;;;;;;;41.90;22.02;;;11.00;90.70;;;;;;5119217;28;20028;-82
2021/12/15 08:03:19;;;;;;;41.72;21.98;;;11.00;90.70;;;;;;5100665;28;20523;-83
2021/12/15 08:05:49;;;;;;;43.22;20.98;;;11.00;90.80;;;;;;5097196;28;20019;-83
2021/12/15 08:08:15;;;;;;;44.45;22.30;;;11.00;90.70;;;;;;5096425;28;20555;-83
2021/12/15 08:10:42;;;;;;;45.28;21.42;;;11.00;90.70;;;;;;5096494;28;20143;-80
2021/12/15 08:13:11;;;;;;;45.45;22.83;;;11.00;90.80;;;;;;5095656;28;20068;-80
2021/12/15 08:15:38;;;;;;;42.13;22.23;;;11.10;90.80;;;;;;5096363;28;20026;-81
2021/12/15 08:18:04;;;;;;;47.88;23.55;;;11.10;90.80;;;;;;5095551;28;20034;-80
2021/12/15 08:20:31;;;;;;;41.55;21.42;;;11.00;90.80;;;;;;5096346;28;20033;-84
2021/12/15 08:22:57;;;;;;;47.63;23.13;;;11.00;90.80;;;;;;5096216;28;20023;-80
2021/12/15 08:25:24;;;;;;;47.75;23.40;;;11.00;90.80;;;;;;5095138;28;20040;-80
2021/12/15 08:27:51;;;;;;;47.05;23.63;;;11.00;90.80;;;;;;5095066;28;20023;-80
2021/12/15 08:30:21;;;;;;;47.30;22.98;;;11.00;90.80;;;;;;5091699;28;20439;-79
2021/12/15 08:32:53;;;;;;;46.85;24.05;;;11.00;90.90;;;;;;5095213;28;20020;-79
2021/12/15 08:35:23;;;;;;;45.83;23.80;;;11.00;90.90;;;;;;5095149;28;20098;-81
2021/12/15 08:37:49;;;;;;;51.20;23.70;;;11.00;90.90;;;;;;5095176;28;20394;-80
2021/12/15 08:40:17;;;;;;;46.53;22.30;;;11.00;90.90;;;;;;5095146;28;20110;-79
2021/12/15 08:42:43;;;;;;;44.60;22.05;;;11.10;90.90;;;;;;5094999;28;20478;-79
2021/12/15 08:45:10;;;;;;;46.00;22.80;;;11.10;90.90;;;;;;5095156;28;20019;-79
2021/12/15 08:47:35;;;;;;;47.75;23.38;;;11.10;90.90;;;;;;5095024;28;20035;-79
2021/12/15 08:50:04;;;;;;;42.83;21.83;;;11.10;90.90;;;;;;5095013;28;20023;-79
2021/12/15 08:52:30;;;;;;;42.65;22.63;;;11.10;90.90;;;;;;5094923;28;20066;-80
2021/12/15 08:54:56;;;;;;;50.30;23.23;;;11.10;90.90;;;;;;5113132;28;20494;-80
2021/12/15 08:57:22;;;;;;;47.63;23.67;;;11.10;90.90;;;;;;5092016;28;20406;-79
2021/12/15 08:59:49;;;;;;;44.17;22.13;;;11.10;90.90;;;;;;5094950;28;20028;-80
2021/12/15 09:02:14;;;;;;;42.72;21.10;;;11.10;90.90;;;;;;5094775;28;20019;-80
2021/12/15 09:04:42;;;;;;;42.40;21.80;;;11.20;90.90;;;;;;5094924;28;20521;-80
2021/12/15 09:07:08;;;;;;;49.97;23.90;;;11.20;90.90;;;;;;5094839;28;20032;-80
2021/12/15 09:09:34;;;;;;;44.20;22.10;;;11.10;91.10;;;;;;5094673;28;20035;-80
2021/12/15 09:12:01;;;;;;;46.90;23.75;;;11.20;90.90;;;;;;5113040;28;20027;-79
2021/12/15 09:14:27;;;;;;;48.03;23.42;;;11.20;90.90;;;;;;5113406;28;20023;-80
2021/12/15 09:16:55;;;;;;;48.38;23.67;;;11.20;90.90;;;;;;5094734;28;20031;-80
2021/12/15 09:19:21;;;;;;;47.03;23.75;;;11.10;90.80;;;;;;5094748;28;20020;-79
2021/12/15 09:21:51;;;;;;;46.72;24.15;;;11.20;90.90;;;;;;5095075;28;20420;-80
2021/12/15 09:24:18;;;;;;;45.67;23.35;;;11.20;90.90;;;;;;5094503;28;20039;-80
2021/12/15 09:26:46;;;;;;;50.88;23.73;;;11.20;90.90;;;;;;5094422;28;20487;-80
2021/12/15 09:29:13;;;;;;;46.15;23.13;;;11.20;90.90;;;;;;5112970;28;20518;-80
2021/12/15 09:31:39;;;;;;;42.80;22.05;;;11.20;90.90;;;;;;5113010;28;20032;-80
2021/12/15 09:34:06;;;;;;;46.03;24.20;;;11.20;90.90;;;;;;5094674;28;20427;-80
2021/12/15 09:36:32;;;;;;;50.20;23.92;;;11.20;90.90;;;;;;5094669;28;20016;-80
2021/12/15 09:39:05;;;;;;;46.28;23.15;;;11.20;90.90;;;;;;5094564;28;20053;-81
2021/12/15 09:41:33;;;;;;;50.35;24.45;;;11.20;90.90;;;;;;5094939;28;20055;-81
2021/12/15 09:44:06;;;;;;;52.75;25.33;;;11.20;90.90;;;;;;5098227;28;20108;-80
2021/12/15 09:46:41;;;;;;;47.25;24.45;;;11.20;90.90;;;;;;5098577;28;20122;-81
2021/12/15 09:57:34;;;;;;;49.45;23.02;;;11.20;90.90;;;;;;5116949;28;20073;-80
2021/12/15 10:03:01;;;;;;;53.80;25.90;;;11.20;90.90;;;;;;5116524;28;20108;-80
2021/12/15 10:19:40;;;;;;;47.55;23.92;;;11.30;90.90;;;;;;5116469;28;20088;-80
2021/12/15 10:22:13;;;;;;;46.17;24.17;;;11.40;91.20;;;;;;5098090;28;20027;-79
2021/12/15 10:24:47;;;;;;;48.72;24.63;;;11.40;90.90;;;;;;5115861;28;20044;-78
2021/12/15 10:27:34;;;;;;;42.22;23.10;;;11.40;90.80;;;;;;5097624;28;20023;-80
2021/12/15 10:30:06;;;;;;;46.13;24.33;;;11.30;90.80;;;;;;5096757;28;20118;-80
2021/12/15 10:32:35;;;;;;;45.45;24.23;;;11.30;90.80;;;;;;5097791;28;20034;-79
2021/12/15 10:35:16;;;;;;;47.28;24.55;;;11.30;90.80;;;;;;5097557;28;20024;-79
2021/12/15 10:37:42;;;;;;;42.30;23.13;;;11.30;90.80;;;;;;5097272;28;20486;-78
2021/12/15 10:40:20;;;;;;;39.55;22.60;;;11.40;90.90;;;;;;5097942;28;20023;-79
2021/12/15 10:43:01;;;;;;;44.92;24.25;;;11.40;90.80;;;;;;5097713;28;20027;-84
2021/12/15 10:45:38;;;;;;;41.10;24.02;;;11.40;90.80;;;;;;5098162;28;20491;-79
2021/12/15 10:48:09;;;;;;;44.03;24.98;;;11.40;90.80;;;;;;5115432;28;20027;-80
2021/12/15 10:50:38;;;;;;;40.33;23.50;;;11.40;90.80;;;;;;5097185;28;20156;-81
2021/12/15 10:53:04;;;;;;;44.78;24.98;;;11.40;90.80;;;;;;5096719;28;20387;-79
2021/12/15 10:55:35;;;;;;;43.28;24.00;;;11.40;90.80;;;;;;5096712;28;20038;-79
2021/12/15 10:58:22;;;;;;;45.25;26.48;;;11.50;90.80;;;;;;5097307;28;20030;-79
2021/12/15 11:00:47;;;;;;;44.22;25.02;;;11.50;90.70;;;;;;5096797;28;20031;-79
2021/12/15 11:03:16;;;;;;;46.17;24.88;;;11.50;90.70;;;;;;5097786;28;20368;-79
2021/12/15 11:05:42;;;;;;;40.50;23.70;;;11.50;90.70;;;;;;5098126;28;20061;-80
2021/12/15 11:08:08;;;;;;;42.38;25.35;;;11.50;90.70;;;;;;5097384;28;20023;-80
2021/12/15 11:14:02;;;;;;;35.15;22.70;;;11.60;90.70;;;;;;5115967;28;20074;-81
2021/12/15 11:16:30;;;;;;;40.10;24.40;;;11.60;90.70;;;;;;5096156;28;20490;-79
2021/12/15 11:18:59;;;;;;;39.83;24.90;;;11.60;90.60;;;;;;5099133;28;20020;-80
2021/12/15 11:21:31;;;;;;;40.28;24.35;;;11.60;90.60;;;;;;5097586;28;20379;-81
2021/12/15 11:24:00;;;;;;;38.15;23.08;;;11.60;90.60;;;;;;5096757;28;20026;-80
2021/12/15 11:26:31;;;;;;;37.00;23.48;;;11.60;90.60;;;;;;5099422;28;20395;-82
2021/12/15 11:29:44;;;;;;;37.88;23.70;;;11.70;90.60;;;;;;5095324;28;20464;-81
2021/12/15 11:32:37;;;;;;;38.50;23.67;;;11.70;90.50;;;;;;5070034;28;20097;-81
2021/12/15 11:35:20;;;;;;;38.40;22.85;;;11.70;90.50;;;;;;5076725;28;20034;-81
2021/12/15 11:37:58;;;;;;;38.22;23.90;;;11.70;90.50;;;;;;5072637;28;20161;-81
2021/12/15 11:40:33;;;;;;;36.08;22.70;;;11.70;90.50;;;;;;5075644;28;20089;-81
2021/12/15 11:46:22;;;;;;;38.35;24.38;;;11.70;90.40;;;;;;5092683;28;20058;-82
2021/12/15 11:48:53;;;;;;;34.22;22.77;;;11.70;90.40;;;;;;5075181;28;20487;-82
2021/12/15 11:51:38;;;;;;;34.33;22.30;;;11.70;90.40;;;;;;5073074;28;20032;-83
2021/12/15 11:54:17;;;;;;;34.90;23.15;;;11.80;90.40;;;;;;5076716;28;20394;-84
2021/12/15 11:56:44;;;;;;;34.10;22.88;;;11.80;90.70;;;;;;5076090;28;20028;-83
2021/12/15 11:59:44;;;;;;;37.50;23.65;;;11.80;90.40;;;;;;5076844;28;20398;-83
2021/12/15 12:02:24;;;;;;;30.52;21.02;;;11.80;90.30;;;;;;5086381;28;20118;-84
2021/12/15 12:05:10;;;;;;;34.65;23.33;;;11.70;90.30;;;;;;5115340;28;20051;-84
2021/12/15 12:11:15;;;;;;;32.38;22.15;;;11.70;90.40;;;;;;5115343;28;20414;-83
2021/12/15 12:13:49;;;;;;;29.60;21.40;;;11.70;90.40;;;;;;5096726;28;20024;-83
2021/12/15 12:16:22;;;;;;;31.70;21.17;;;11.70;90.40;;;;;;5096591;28;20462;-82
2021/12/15 12:18:48;;;;;;;;;;;11.70;90.40;;;;;;5094644;28;20548;-82
2021/12/15 12:21:20;;;;;;;30.02;20.90;;;11.70;90.40;;;;;;5096766;28;19951;-83
2021/12/15 12:23:49;;;;;;;27.92;20.05;;;11.70;90.40;;;;;;5096511;28;20461;-83
2021/12/15 12:29:50;;;;;;;31.20;21.23;;;11.70;90.40;;;;;;5114931;28;20163;-83
2021/12/15 12:32:19;;;;;;;29.38;21.08;;;11.70;90.40;;;;;;5096050;28;20046;-83
2021/12/15 12:34:48;;;;;;;30.70;21.65;;;11.70;90.40;;;;;;5096772;28;20111;-83
2021/12/15 12:37:20;;;;;;;27.35;19.65;;;11.80;90.70;;;;;;5097262;28;20131;-84
2021/12/15 12:43:20;;;;;;;27.45;20.05;;;11.80;90.30;;;;;;5119272;28;20034;-84
2021/12/15 12:45:56;;;;;;;28.27;20.17;;;11.90;90.20;;;;;;5097244;28;20027;-83
2021/12/15 12:48:59;;;;;;;26.30;19.63;;;11.90;90.20;;;;;;5095897;28;20043;-82
2021/12/15 12:59:24;;;;;;;27.35;18.73;;;12.00;90.30;;;;;;5114571;28;20057;-82
2021/12/15 13:00:49;;;;;;;27.60;18.77;;;12.00;90.00;;;;;;5113368;28;20173;-81
2021/12/15 13:06:42;;;;;;;25.25;17.67;;;12.10;90.00;;;;;;5114411;28;20043;-81
2021/12/15 13:13:11;;;;;;;23.70;17.13;;;12.00;89.90;;;;;;5051923;28;20087;-81
2021/12/15 13:15:39;;;;;;;25.10;17.52;;;12.00;89.80;;;;;;5052827;28;20527;-81
2021/12/15 13:18:12;;;;;;;25.60;17.63;;;12.00;89.80;;;;;;5057451;28;20385;-81
2021/12/15 13:20:40;;;;;;;22.67;16.33;;;12.00;89.60;;;;;;5058550;28;20123;-83
2021/12/15 13:23:33;;;;;;;22.70;15.95;;;12.00;89.60;;;;;;5058474;28;20541;-84
2021/12/15 13:29:12;;;;;;;22.17;15.30;;;12.10;89.60;;;;;;5075454;28;20039;-82
2021/12/15 13:35:00;;;;;;;19.73;14.40;;;12.10;89.40;;;;;;5075389;28;20097;-83
2021/12/15 13:41:36;;;;;;;19.00;13.80;;;12.10;89.30;;;;;;5081645;28;20511;-83
2021/12/15 13:44:36;;;;;;;19.73;13.30;;;12.10;89.30;;;;;;5073031;28;20146;-83
2021/12/15 13:47:24;;;;;;;20.60;14.15;;;12.10;89.10;;;;;;5045768;28;20086;-79
2021/12/15 13:49:56;;;;;;;17.17;12.93;;;12.00;89.00;;;;;;5078128;28;20028;-79
2021/12/15 13:52:30;;;;;;;17.67;13.00;;;12.00;88.90;;;;;;5078244;28;20073;-79
2021/12/15 13:55:11;;;;;;;17.15;12.45;;;12.00;88.80;;;;;;5078396;28;20027;-79
2021/12/15 13:58:03;;;;;;;18.20;11.88;;;12.00;89.00;;;;;;5096179;28;20028;-79
2021/12/15 14:01:03;;;;;;;19.17;11.35;;;12.00;88.90;;;;;;5082456;28;20111;-78
2021/12/15 14:03:46;;;;;;;16.50;11.35;;;12.00;88.70;;;;;;5096136;28;20028;-78
2021/12/15 14:06:15;;;;;;;16.88;11.13;;;12.00;88.60;;;;;;5096139;28;20514;-78
2021/12/15 14:08:49;;;;;;;15.52;10.57;;;12.00;88.60;;;;;;5096353;28;20099;-78
2021/12/15 14:11:25;;;;;;;14.25;10.18;;;12.00;88.60;;;;;;5077874;28;20425;-79
2021/12/15 14:13:53;;;;;;;15.05;10.00;;;12.00;88.60;;;;;;5069412;28;20019;-79
2021/12/15 14:16:47;;;;;;;14.32;11.32;;;12.00;88.50;;;;;;5095023;28;20062;-79
2021/12/15 14:19:20;;;;;;;15.07;9.98;;;12.00;88.80;;;;;;5094437;28;20022;-79
2021/12/15 14:21:50;;;;;;;12.93;9.57;;;12.00;88.40;;;;;;5094818;28;20031;-79
2021/12/15 14:24:18;;;;;;;12.90;9.52;;;12.00;88.40;;;;;;5100363;27;20043;-79
2021/12/15 14:26:47;;;;;;;15.25;10.10;;;12.00;88.50;;;;;;5118167;27;20031;-80
2021/12/15 14:29:17;;;;;;;12.25;9.68;;;12.00;88.30;;;;;;5116780;27;20022;-79
2021/12/15 14:31:45;;;;;;;12.40;9.88;;;12.00;88.30;;;;;;5118245;27;20023;-78
2021/12/15 14:34:18;;;;;;;15.50;10.35;;;12.00;88.10;;;;;;5118085;27;20114;-78
2021/12/15 14:36:48;;;;;;;13.30;9.80;;;12.00;87.90;;;;;;5118004;27;20015;-79
2021/12/15 14:39:18;;;;;;;12.63;8.90;;;11.90;88.00;;;;;;5118035;27;20130;-79
2021/12/15 14:41:56;;;;;;;15.27;9.60;;;11.90;88.00;;;;;;5117932;27;20019;-79
2021/12/15 14:44:29;;;;;;;10.77;8.40;;;11.90;88.00;;;;;;5136573;27;20042;-79
2021/12/15 14:47:02;;;;;;;11.02;8.45;;;11.90;88.00;;;;;;5118266;27;20024;-79
2021/12/15 14:49:40;;;;;;;12.27;8.10;;;12.00;88.10;;;;;;5117773;27;20394;-79
2021/12/15 14:52:21;;;;;;;11.60;8.93;;;11.90;87.90;;;;;;5117704;27;20015;-79
2021/12/15 14:54:49;;;;;;;11.48;9.38;;;11.90;87.90;;;;;;5114852;27;20037;-79
2021/12/15 14:57:21;;;;;;;13.40;9.07;;;11.90;87.80;;;;;;5117696;27;20382;-79
2021/12/15 15:03:12;;;;;;;10.98;8.55;;;11.90;87.80;;;;;;5136025;27;20489;-78
2021/12/15 15:05:50;;;;;;;12.45;8.82;;;11.80;87.70;;;;;;5117507;27;20493;-80
2021/12/15 15:08:30;;;;;;;12.60;8.93;;;11.90;87.70;;;;;;5114509;27;20068;-79
2021/12/15 15:10:56;;;;;;;11.32;8.35;;;11.80;87.70;;;;;;5117034;27;20020;-79
2021/12/15 15:13:31;;;;;;;13.07;9.35;;;11.90;87.90;;;;;;5117409;27;20019;-79
2021/12/15 15:16:01;;;;;;;12.75;9.38;;;11.80;87.70;;;;;;5116680;27;20031;-79
2021/12/15 15:18:30;;;;;;;11.85;8.32;;;11.90;87.70;;;;;;5132551;27;20031;-79
2021/12/15 15:21:15;;;;;;;15.05;10.40;;;11.80;87.70;;;;;;5117089;27;20025;-79
2021/12/15 15:23:45;;;;;;;15.10;9.40;;;11.80;87.70;;;;;;5135524;27;20054;-79
2021/12/15 15:26:13;;;;;;;13.38;9.85;;;11.80;87.70;;;;;;5116628;27;20481;-80
2021/12/15 15:28:42;;;;;;;17.17;10.65;;;11.80;87.80;;;;;;5117033;27;20023;-79
2021/12/15 15:31:11;;;;;;;15.88;10.07;;;11.80;87.80;;;;;;5116837;27;20019;-79
2021/12/15 15:33:39;;;;;;;14.75;10.38;;;11.80;87.80;;;;;;5114060;27;20449;-79
2021/12/15 15:36:09;;;;;;;15.75;9.60;;;11.90;87.80;;;;;;5116761;27;20037;-79
2021/12/15 15:38:42;;;;;;;14.82;10.55;;;11.80;87.70;;;;;;5116777;27;20072;-79
2021/12/15 15:41:12;;;;;;;12.77;10.18;;;11.80;87.60;;;;;;5116626;27;20023;-81
2021/12/15 15:43:51;;;;;;;14.15;9.80;;;11.80;87.70;;;;;;5135620;27;20023;-81
2021/12/15 15:46:24;;;;;;;11.50;9.70;;;11.80;87.70;;;;;;5117022;27;20027;-81
2021/12/15 15:48:52;;;;;;;11.98;10.15;;;11.80;87.70;;;;;;5116540;27;20019;-80
2021/12/15 15:51:36;;;;;;;15.88;11.23;;;11.70;87.70;;;;;;5116587;27;20102;-80
2021/12/15 15:54:08;;;;;;;15.38;11.15;;;11.70;87.70;;;;;;5134929;27;20051;-80
2021/12/15 15:56:37;;;;;;;13.65;10.40;;;11.70;87.80;;;;;;5116506;27;20023;-80